sensor_id;sensor_type;location;lat;lon;timestamp;temperature;humidity
9776;DHT22;4927;52.472;13.108;2022-11-20T00:00:43;0.10;99.90
9776;DHT22;4927;52.472;13.108;2022-11-20T00:05:49;0.10;99.90
9776;DHT22;4927;52.472;13.108;2022-11-20T00:10:56;0.10;99.90
9776;DHT22;4927;52.472;13.108;2022-11-20T00:16:03;0.10;99.90
9776;DHT22;4927;52.472;13.108;2022-11-20T00:21:11;0.10;99.90
9776;DHT22;4927;52.472;13.108;2022-11-20T00:26:15;0.10;99.90
9776;DHT22;4927;52.472;13.108;2022-11-20T00:31:21;0.10;99.90
9776;DHT22;4927;52.472;13.108;2022-11-20T00:41:00;0.00;99.90
9776;DHT22;4927;52.472;13.108;2022-11-20T00:46:07;0.00;99.90
9776;DHT22;4927;52.472;13.108;2022-11-20T00:51:14;0.00;99.90
9776;DHT22;4927;52.472;13.108;2022-11-20T00:56:19;0.00;99.90
9776;DHT22;4927;52.472;13.108;2022-11-20T01:01:25;-0.10;99.90
9776;DHT22;4927;52.472;13.108;2022-11-20T01:06:34;-0.10;99.90
9776;DHT22;4927;52.472;13.108;2022-11-20T01:11:41;-0.20;99.90
9776;DHT22;4927;52.472;13.108;2022-11-20T01:16:48;-0.20;99.90
9776;DHT22;4927;52.472;13.108;2022-11-20T01:21:54;-0.20;99.90
9776;DHT22;4927;52.472;13.108;2022-11-20T01:27:00;-0.20;99.90
9776;DHT22;4927;52.472;13.108;2022-11-20T01:32:06;-0.20;99.90
9776;DHT22;4927;52.472;13.108;2022-11-20T01:37:10;-0.20;99.90
9776;DHT22;4927;52.472;13.108;2022-11-20T01:42:16;-0.30;99.90
9776;DHT22;4927;52.472;13.108;2022-11-20T01:47:37;-0.40;99.90
9776;DHT22;4927;52.472;13.108;2022-11-20T01:52:41;-0.40;99.90
9776;DHT22;4927;52.472;13.108;2022-11-20T01:57:46;-0.40;99.90
9776;DHT22;4927;52.472;13.108;2022-11-20T02:02:51;-0.40;99.90
9776;DHT22;4927;52.472;13.108;2022-11-20T02:07:54;-0.40;99.90
9776;DHT22;4927;52.472;13.108;2022-11-20T02:13:00;-0.40;99.90
9776;DHT22;4927;52.472;13.108;2022-11-20T02:18:11;-0.40;99.90
9776;DHT22;4927;52.472;13.108;2022-11-20T02:23:25;-0.50;99.90
9776;DHT22;4927;52.472;13.108;2022-11-20T02:28:29;-0.50;99.90
9776;DHT22;4927;52.472;13.108;2022-11-20T02:33:36;-0.60;99.90
9776;DHT22;4927;52.472;13.108;2022-11-20T02:38:42;-0.60;99.90
9776;DHT22;4927;52.472;13.108;2022-11-20T02:43:49;-0.70;99.90
9776;DHT22;4927;52.472;13.108;2022-11-20T02:48:55;-0.70;99.90
9776;DHT22;4927;52.472;13.108;2022-11-20T02:54:01;-0.80;99.90
9776;DHT22;4927;52.472;13.108;2022-11-20T02:59:06;-0.80;99.90
9776;DHT22;4927;52.472;13.108;2022-11-20T03:04:10;-0.70;99.90
9776;DHT22;4927;52.472;13.108;2022-11-20T03:09:16;-0.70;99.90
9776;DHT22;4927;52.472;13.108;2022-11-20T03:14:22;-0.70;99.90
9776;DHT22;4927;52.472;13.108;2022-11-20T03:19:29;-0.60;99.90
9776;DHT22;4927;52.472;13.108;2022-11-20T03:24:33;-0.60;99.90
9776;DHT22;4927;52.472;13.108;2022-11-20T03:29:43;-0.60;99.90
9776;DHT22;4927;52.472;13.108;2022-11-20T03:34:47;-0.60;99.90
9776;DHT22;4927;52.472;13.108;2022-11-20T03:39:52;-0.70;99.90
9776;DHT22;4927;52.472;13.108;2022-11-20T03:44:58;-0.60;99.90
9776;DHT22;4927;52.472;13.108;2022-11-20T03:50:03;-0.60;99.90
9776;DHT22;4927;52.472;13.108;2022-11-20T03:55:09;-0.50;99.90
9776;DHT22;4927;52.472;13.108;2022-11-20T04:00:14;-0.60;99.90
9776;DHT22;4927;52.472;13.108;2022-11-20T04:05:18;-0.50;99.90
9776;DHT22;4927;52.472;13.108;2022-11-20T04:10:25;-0.50;99.90
9776;DHT22;4927;52.472;13.108;2022-11-20T04:15:29;-0.50;99.90
9776;DHT22;4927;52.472;13.108;2022-11-20T04:20:35;-0.50;99.90
9776;DHT22;4927;52.472;13.108;2022-11-20T04:25:41;-0.40;99.90
9776;DHT22;4927;52.472;13.108;2022-11-20T04:30:46;-0.40;99.90
9776;DHT22;4927;52.472;13.108;2022-11-20T04:35:50;-0.40;99.90
9776;DHT22;4927;52.472;13.108;2022-11-20T04:40:58;-0.40;99.90
9776;DHT22;4927;52.472;13.108;2022-11-20T04:46:03;-0.30;99.90
9776;DHT22;4927;52.472;13.108;2022-11-20T04:51:08;-0.30;99.90
9776;DHT22;4927;52.472;13.108;2022-11-20T04:56:14;-0.30;99.90
9776;DHT22;4927;52.472;13.108;2022-11-20T05:01:21;-0.30;99.90
9776;DHT22;4927;52.472;13.108;2022-11-20T05:06:26;-0.30;99.90
9776;DHT22;4927;52.472;13.108;2022-11-20T05:11:32;-0.20;99.90
9776;DHT22;4927;52.472;13.108;2022-11-20T05:16:36;-0.20;99.90
9776;DHT22;4927;52.472;13.108;2022-11-20T05:21:43;-0.20;99.90
9776;DHT22;4927;52.472;13.108;2022-11-20T05:26:48;-0.20;99.90
9776;DHT22;4927;52.472;13.108;2022-11-20T05:31:54;-0.20;99.90
9776;DHT22;4927;52.472;13.108;2022-11-20T05:37:01;-0.10;99.90
9776;DHT22;4927;52.472;13.108;2022-11-20T05:42:07;-0.20;99.90
9776;DHT22;4927;52.472;13.108;2022-11-20T05:47:19;-0.20;99.90
9776;DHT22;4927;52.472;13.108;2022-11-20T05:52:28;-0.20;99.90
9776;DHT22;4927;52.472;13.108;2022-11-20T05:57:34;-0.20;99.90
9776;DHT22;4927;52.472;13.108;2022-11-20T06:02:40;-0.20;99.90
9776;DHT22;4927;52.472;13.108;2022-11-20T06:07:47;-0.10;99.90
9776;DHT22;4927;52.472;13.108;2022-11-20T06:12:51;-0.10;99.90
9776;DHT22;4927;52.472;13.108;2022-11-20T06:17:55;-0.10;99.90
9776;DHT22;4927;52.472;13.108;2022-11-20T06:23:02;-0.10;99.90
9776;DHT22;4927;52.472;13.108;2022-11-20T06:28:06;-0.10;99.90
9776;DHT22;4927;52.472;13.108;2022-11-20T06:33:10;-0.10;99.90
9776;DHT22;4927;52.472;13.108;2022-11-20T06:38:16;-0.10;99.90
9776;DHT22;4927;52.472;13.108;2022-11-20T06:43:23;-0.10;99.90
9776;DHT22;4927;52.472;13.108;2022-11-20T06:48:27;-0.10;99.90
9776;DHT22;4927;52.472;13.108;2022-11-20T06:53:31;-0.10;99.90
9776;DHT22;4927;52.472;13.108;2022-11-20T06:58:36;-0.10;99.90
9776;DHT22;4927;52.472;13.108;2022-11-20T07:03:40;-0.10;99.90
9776;DHT22;4927;52.472;13.108;2022-11-20T07:08:47;-0.10;99.90
9776;DHT22;4927;52.472;13.108;2022-11-20T07:13:53;-0.10;99.90
9776;DHT22;4927;52.472;13.108;2022-11-20T07:18:59;-0.10;99.90
9776;DHT22;4927;52.472;13.108;2022-11-20T07:24:05;-0.10;99.90
9776;DHT22;4927;52.472;13.108;2022-11-20T07:29:12;-0.10;99.90
9776;DHT22;4927;52.472;13.108;2022-11-20T07:34:18;-0.10;99.90
9776;DHT22;4927;52.472;13.108;2022-11-20T07:39:24;-0.10;99.90
9776;DHT22;4927;52.472;13.108;2022-11-20T07:44:30;0.00;99.90
9776;DHT22;4927;52.472;13.108;2022-11-20T07:49:37;0.00;99.90
9776;DHT22;4927;52.472;13.108;2022-11-20T07:54:43;0.00;99.90
9776;DHT22;4927;52.472;13.108;2022-11-20T07:59:49;0.00;99.90
9776;DHT22;4927;52.472;13.108;2022-11-20T08:04:55;0.00;99.90
9776;DHT22;4927;52.472;13.108;2022-11-20T08:10:02;0.00;99.90
9776;DHT22;4927;52.472;13.108;2022-11-20T08:15:08;0.10;99.90
9776;DHT22;4927;52.472;13.108;2022-11-20T08:20:14;0.20;99.90
9776;DHT22;4927;52.472;13.108;2022-11-20T08:25:20;0.30;99.90
9776;DHT22;4927;52.472;13.108;2022-11-20T08:30:25;0.40;99.90
9776;DHT22;4927;52.472;13.108;2022-11-20T08:35:32;0.40;99.90
9776;DHT22;4927;52.472;13.108;2022-11-20T08:40:38;0.40;99.90
9776;DHT22;4927;52.472;13.108;2022-11-20T08:45:44;0.40;99.90
9776;DHT22;4927;52.472;13.108;2022-11-20T08:50:51;0.50;99.90
9776;DHT22;4927;52.472;13.108;2022-11-20T08:55:57;0.50;99.90
9776;DHT22;4927;52.472;13.108;2022-11-20T09:01:04;0.60;99.90
9776;DHT22;4927;52.472;13.108;2022-11-20T09:06:10;0.70;99.90
9776;DHT22;4927;52.472;13.108;2022-11-20T09:11:16;0.80;99.90
9776;DHT22;4927;52.472;13.108;2022-11-20T09:16:23;0.70;99.90
9776;DHT22;4927;52.472;13.108;2022-11-20T09:21:30;0.60;99.90
9776;DHT22;4927;52.472;13.108;2022-11-20T09:26:36;0.60;99.90
9776;DHT22;4927;52.472;13.108;2022-11-20T09:31:40;0.70;99.90
9776;DHT22;4927;52.472;13.108;2022-11-20T09:36:46;0.70;99.90
9776;DHT22;4927;52.472;13.108;2022-11-20T09:42:27;0.70;99.90
9776;DHT22;4927;52.472;13.108;2022-11-20T09:47:45;0.70;99.90
9776;DHT22;4927;52.472;13.108;2022-11-20T09:58:21;0.70;99.90
9776;DHT22;4927;52.472;13.108;2022-11-20T10:08:55;0.80;99.90
9776;DHT22;4927;52.472;13.108;2022-11-20T10:14:30;0.90;99.90
9776;DHT22;4927;52.472;13.108;2022-11-20T10:19:52;1.00;99.90
9776;DHT22;4927;52.472;13.108;2022-11-20T10:25:11;1.00;99.90
9776;DHT22;4927;52.472;13.108;2022-11-20T10:30:16;1.10;99.90
9776;DHT22;4927;52.472;13.108;2022-11-20T10:35:23;1.20;99.90
9776;DHT22;4927;52.472;13.108;2022-11-20T10:40:35;1.30;99.90
9776;DHT22;4927;52.472;13.108;2022-11-20T10:45:57;1.40;99.90
9776;DHT22;4927;52.472;13.108;2022-11-20T10:51:10;1.40;99.90
9776;DHT22;4927;52.472;13.108;2022-11-20T10:56:20;1.60;99.90
9776;DHT22;4927;52.472;13.108;2022-11-20T11:01:25;1.80;99.90
9776;DHT22;4927;52.472;13.108;2022-11-20T11:06:33;1.80;99.90
9776;DHT22;4927;52.472;13.108;2022-11-20T11:11:38;1.80;99.90
9776;DHT22;4927;52.472;13.108;2022-11-20T11:16:51;1.80;99.90
9776;DHT22;4927;52.472;13.108;2022-11-20T11:21:56;1.90;99.90
9776;DHT22;4927;52.472;13.108;2022-11-20T11:27:03;1.90;99.90
9776;DHT22;4927;52.472;13.108;2022-11-20T11:32:13;1.90;99.90
9776;DHT22;4927;52.472;13.108;2022-11-20T11:37:19;1.90;99.90
9776;DHT22;4927;52.472;13.108;2022-11-20T11:42:24;1.80;99.90
9776;DHT22;4927;52.472;13.108;2022-11-20T11:47:45;1.80;99.90
9776;DHT22;4927;52.472;13.108;2022-11-20T11:53:12;1.90;99.90
9776;DHT22;4927;52.472;13.108;2022-11-20T11:58:18;2.00;99.90
9776;DHT22;4927;52.472;13.108;2022-11-20T12:03:28;2.00;99.90
9776;DHT22;4927;52.472;13.108;2022-11-20T12:08:37;2.20;99.90
9776;DHT22;4927;52.472;13.108;2022-11-20T12:13:41;2.20;99.90
9776;DHT22;4927;52.472;13.108;2022-11-20T12:18:48;2.10;99.90
9776;DHT22;4927;52.472;13.108;2022-11-20T12:24:06;2.00;99.90
9776;DHT22;4927;52.472;13.108;2022-11-20T12:35:01;1.90;99.90
9776;DHT22;4927;52.472;13.108;2022-11-20T12:40:27;1.80;99.90
9776;DHT22;4927;52.472;13.108;2022-11-20T12:45:54;1.70;99.90
9776;DHT22;4927;52.472;13.108;2022-11-20T13:01:58;1.40;99.90
9776;DHT22;4927;52.472;13.108;2022-11-20T13:07:03;1.20;99.90
9776;DHT22;4927;52.472;13.108;2022-11-20T13:12:16;1.20;99.90
9776;DHT22;4927;52.472;13.108;2022-11-20T13:17:31;1.10;99.90
9776;DHT22;4927;52.472;13.108;2022-11-20T13:22:45;1.00;99.90
9776;DHT22;4927;52.472;13.108;2022-11-20T13:27:51;1.10;99.90
9776;DHT22;4927;52.472;13.108;2022-11-20T13:33:06;1.10;99.90
9776;DHT22;4927;52.472;13.108;2022-11-20T13:38:12;1.10;99.90
9776;DHT22;4927;52.472;13.108;2022-11-20T13:43:35;1.20;99.90
9776;DHT22;4927;52.472;13.108;2022-11-20T13:48:41;1.40;99.90
9776;DHT22;4927;52.472;13.108;2022-11-20T13:54:03;1.40;99.90
9776;DHT22;4927;52.472;13.108;2022-11-20T13:59:09;1.40;99.90
9776;DHT22;4927;52.472;13.108;2022-11-20T14:04:17;1.30;99.90
9776;DHT22;4927;52.472;13.108;2022-11-20T14:09:27;1.30;99.90
9776;DHT22;4927;52.472;13.108;2022-11-20T14:14:33;1.10;99.90
9776;DHT22;4927;52.472;13.108;2022-11-20T14:19:40;1.10;99.90
9776;DHT22;4927;52.472;13.108;2022-11-20T14:24:47;1.10;99.90
9776;DHT22;4927;52.472;13.108;2022-11-20T14:29:53;1.10;99.90
9776;DHT22;4927;52.472;13.108;2022-11-20T14:35:01;1.10;99.90
9776;DHT22;4927;52.472;13.108;2022-11-20T14:45:25;1.00;99.90
9776;DHT22;4927;52.472;13.108;2022-11-20T14:50:32;1.10;99.90
9776;DHT22;4927;52.472;13.108;2022-11-20T14:55:38;1.10;99.90
9776;DHT22;4927;52.472;13.108;2022-11-20T15:00:52;1.10;99.90
9776;DHT22;4927;52.472;13.108;2022-11-20T15:05:51;1.10;99.90
9776;DHT22;4927;52.472;13.108;2022-11-20T15:10:55;1.10;99.90
9776;DHT22;4927;52.472;13.108;2022-11-20T15:16:02;1.00;99.90
9776;DHT22;4927;52.472;13.108;2022-11-20T15:21:10;1.00;99.90
9776;DHT22;4927;52.472;13.108;2022-11-20T15:26:17;1.00;99.90
9776;DHT22;4927;52.472;13.108;2022-11-20T15:31:21;1.10;99.90
9776;DHT22;4927;52.472;13.108;2022-11-20T15:36:26;1.00;99.90
9776;DHT22;4927;52.472;13.108;2022-11-20T15:41:34;0.90;99.90
9776;DHT22;4927;52.472;13.108;2022-11-20T15:46:40;0.80;99.90
9776;DHT22;4927;52.472;13.108;2022-11-20T15:51:44;0.60;99.90
9776;DHT22;4927;52.472;13.108;2022-11-20T15:56:50;0.50;99.90
9776;DHT22;4927;52.472;13.108;2022-11-20T16:01:57;0.40;99.90
9776;DHT22;4927;52.472;13.108;2022-11-20T16:07:04;0.20;99.90
9776;DHT22;4927;52.472;13.108;2022-11-20T16:12:10;0.20;99.90
9776;DHT22;4927;52.472;13.108;2022-11-20T16:17:17;0.10;99.90
9776;DHT22;4927;52.472;13.108;2022-11-20T16:22:23;0.00;99.90
9776;DHT22;4927;52.472;13.108;2022-11-20T16:27:30;-0.10;99.90
9776;DHT22;4927;52.472;13.108;2022-11-20T16:32:37;-0.30;99.90
9776;DHT22;4927;52.472;13.108;2022-11-20T16:37:47;-0.30;99.90
9776;DHT22;4927;52.472;13.108;2022-11-20T16:42:53;-0.40;99.90
9776;DHT22;4927;52.472;13.108;2022-11-20T16:47:59;-0.40;99.90
9776;DHT22;4927;52.472;13.108;2022-11-20T16:53:06;-0.50;99.90
9776;DHT22;4927;52.472;13.108;2022-11-20T16:58:12;-0.50;99.90
9776;DHT22;4927;52.472;13.108;2022-11-20T17:03:18;-0.60;99.90
9776;DHT22;4927;52.472;13.108;2022-11-20T17:08:26;-0.70;99.90
9776;DHT22;4927;52.472;13.108;2022-11-20T17:13:31;-0.80;99.90
9776;DHT22;4927;52.472;13.108;2022-11-20T17:18:37;-1.00;99.90
9776;DHT22;4927;52.472;13.108;2022-11-20T17:23:45;-1.10;99.90
9776;DHT22;4927;52.472;13.108;2022-11-20T17:28:53;-1.10;99.90
9776;DHT22;4927;52.472;13.108;2022-11-20T17:33:59;-1.20;99.90
9776;DHT22;4927;52.472;13.108;2022-11-20T17:39:05;-1.20;99.90
9776;DHT22;4927;52.472;13.108;2022-11-20T17:44:12;-1.20;99.90
9776;DHT22;4927;52.472;13.108;2022-11-20T17:49:18;-1.30;99.90
9776;DHT22;4927;52.472;13.108;2022-11-20T17:54:24;-1.40;99.90
9776;DHT22;4927;52.472;13.108;2022-11-20T17:59:30;-1.40;99.90
9776;DHT22;4927;52.472;13.108;2022-11-20T18:04:36;-1.50;99.90
9776;DHT22;4927;52.472;13.108;2022-11-20T18:09:43;-1.70;99.90
9776;DHT22;4927;52.472;13.108;2022-11-20T18:14:50;-1.70;99.90
9776;DHT22;4927;52.472;13.108;2022-11-20T18:19:56;-1.90;99.90
9776;DHT22;4927;52.472;13.108;2022-11-20T18:25:05;-2.00;99.90
9776;DHT22;4927;52.472;13.108;2022-11-20T18:30:10;-1.90;99.90
9776;DHT22;4927;52.472;13.108;2022-11-20T18:35:17;-2.00;99.90
9776;DHT22;4927;52.472;13.108;2022-11-20T18:40:23;-2.00;99.90
9776;DHT22;4927;52.472;13.108;2022-11-20T18:45:29;-2.00;99.90
9776;DHT22;4927;52.472;13.108;2022-11-20T18:50:36;-2.00;99.90
9776;DHT22;4927;52.472;13.108;2022-11-20T18:55:43;-2.00;99.90
9776;DHT22;4927;52.472;13.108;2022-11-20T19:00:49;-2.00;99.90
9776;DHT22;4927;52.472;13.108;2022-11-20T19:05:56;-2.00;99.90
9776;DHT22;4927;52.472;13.108;2022-11-20T19:11:05;-2.00;99.90
9776;DHT22;4927;52.472;13.108;2022-11-20T19:16:14;-2.10;99.90
9776;DHT22;4927;52.472;13.108;2022-11-20T19:21:21;-2.20;99.90
9776;DHT22;4927;52.472;13.108;2022-11-20T19:26:26;-2.10;99.90
9776;DHT22;4927;52.472;13.108;2022-11-20T19:31:32;-2.20;99.90
9776;DHT22;4927;52.472;13.108;2022-11-20T19:36:38;-2.20;99.90
9776;DHT22;4927;52.472;13.108;2022-11-20T19:41:45;-2.30;99.90
9776;DHT22;4927;52.472;13.108;2022-11-20T19:46:51;-2.30;99.90
9776;DHT22;4927;52.472;13.108;2022-11-20T19:51:59;-2.30;99.90
9776;DHT22;4927;52.472;13.108;2022-11-20T19:57:03;-2.30;99.90
9776;DHT22;4927;52.472;13.108;2022-11-20T20:02:09;-2.30;99.90
9776;DHT22;4927;52.472;13.108;2022-11-20T20:07:15;-2.30;99.90
9776;DHT22;4927;52.472;13.108;2022-11-20T20:12:22;-2.40;99.90
9776;DHT22;4927;52.472;13.108;2022-11-20T20:17:29;-2.40;99.90
9776;DHT22;4927;52.472;13.108;2022-11-20T20:22:35;-2.40;99.90
9776;DHT22;4927;52.472;13.108;2022-11-20T20:27:41;-2.40;99.90
9776;DHT22;4927;52.472;13.108;2022-11-20T20:32:47;-2.50;99.90
9776;DHT22;4927;52.472;13.108;2022-11-20T20:37:54;-2.60;99.90
9776;DHT22;4927;52.472;13.108;2022-11-20T20:43:00;-2.70;99.90
9776;DHT22;4927;52.472;13.108;2022-11-20T20:48:04;-2.70;99.90
9776;DHT22;4927;52.472;13.108;2022-11-20T20:53:10;-2.80;99.90
9776;DHT22;4927;52.472;13.108;2022-11-20T20:58:17;-2.90;99.90
9776;DHT22;4927;52.472;13.108;2022-11-20T21:03:24;-2.90;99.90
9776;DHT22;4927;52.472;13.108;2022-11-20T21:08:30;-3.00;99.90
9776;DHT22;4927;52.472;13.108;2022-11-20T21:13:36;-3.10;99.90
9776;DHT22;4927;52.472;13.108;2022-11-20T21:18:42;-3.20;99.90
9776;DHT22;4927;52.472;13.108;2022-11-20T21:23:49;-3.30;99.90
9776;DHT22;4927;52.472;13.108;2022-11-20T21:28:55;-3.40;99.90
9776;DHT22;4927;52.472;13.108;2022-11-20T21:34:01;-3.40;99.90
9776;DHT22;4927;52.472;13.108;2022-11-20T21:39:08;-3.40;99.90
9776;DHT22;4927;52.472;13.108;2022-11-20T21:44:12;-3.50;99.90
9776;DHT22;4927;52.472;13.108;2022-11-20T21:49:18;-3.60;99.90
9776;DHT22;4927;52.472;13.108;2022-11-20T21:54:24;-3.60;99.90
9776;DHT22;4927;52.472;13.108;2022-11-20T21:59:31;-3.70;99.90
9776;DHT22;4927;52.472;13.108;2022-11-20T22:04:37;-3.70;99.90
9776;DHT22;4927;52.472;13.108;2022-11-20T22:09:44;-3.80;99.90
9776;DHT22;4927;52.472;13.108;2022-11-20T22:14:54;-3.90;99.90
9776;DHT22;4927;52.472;13.108;2022-11-20T22:20:00;-4.00;99.90
9776;DHT22;4927;52.472;13.108;2022-11-20T22:25:07;-4.00;99.90
9776;DHT22;4927;52.472;13.108;2022-11-20T22:30:12;-4.00;99.90
9776;DHT22;4927;52.472;13.108;2022-11-20T22:35:19;-4.00;99.90
9776;DHT22;4927;52.472;13.108;2022-11-20T22:40:24;-4.00;99.90
9776;DHT22;4927;52.472;13.108;2022-11-20T22:45:31;-3.90;99.90
9776;DHT22;4927;52.472;13.108;2022-11-20T22:50:37;-3.90;99.90
9776;DHT22;4927;52.472;13.108;2022-11-20T22:55:47;-3.90;99.90
9776;DHT22;4927;52.472;13.108;2022-11-20T23:00:50;-3.90;99.90
9776;DHT22;4927;52.472;13.108;2022-11-20T23:05:58;-3.90;99.90
9776;DHT22;4927;52.472;13.108;2022-11-20T23:11:04;-3.80;99.90
9776;DHT22;4927;52.472;13.108;2022-11-20T23:16:11;-3.70;99.90
9776;DHT22;4927;52.472;13.108;2022-11-20T23:21:17;-3.50;99.90
9776;DHT22;4927;52.472;13.108;2022-11-20T23:26:23;-3.50;99.90
9776;DHT22;4927;52.472;13.108;2022-11-20T23:31:29;-3.40;99.90
9776;DHT22;4927;52.472;13.108;2022-11-20T23:36:35;-3.30;99.90
9776;DHT22;4927;52.472;13.108;2022-11-20T23:41:41;-3.20;99.90
9776;DHT22;4927;52.472;13.108;2022-11-20T23:46:47;-3.10;99.90
9776;DHT22;4927;52.472;13.108;2022-11-20T23:51:54;-3.00;99.90
9776;DHT22;4927;52.472;13.108;2022-11-20T23:57:00;-2.90;99.90
